sensor_id;sensor_type;location;lat;lon;timestamp;pressure;altitude;pressure_sealevel;temperature;humidity
26697;BME280;14312;52.614;13.496;2024-03-08T00:01:32;101779.25;;;4.33;52.76
26697;BME280;14312;52.614;13.496;2024-03-08T00:04:18;101778.63;;;4.31;52.94
26697;BME280;14312;52.614;13.496;2024-03-08T00:07:04;101777.13;;;4.29;53.04
26697;BME280;14312;52.614;13.496;2024-03-08T00:09:50;101778.28;;;4.26;53.00
26697;BME280;14312;52.614;13.496;2024-03-08T00:12:36;101775.03;;;4.24;53.16
26697;BME280;14312;52.614;13.496;2024-03-08T00:15:23;101770.91;;;4.22;53.24
26697;BME280;14312;52.614;13.496;2024-03-08T00:18:09;101768.41;;;4.20;53.28
26697;BME280;14312;52.614;13.496;2024-03-08T00:20:56;101773.69;;;4.20;53.26
26697;BME280;14312;52.614;13.496;2024-03-08T00:23:42;101770.44;;;4.18;53.18
26697;BME280;14312;52.614;13.496;2024-03-08T00:26:28;101780.31;;;4.16;53.31
26697;BME280;14312;52.614;13.496;2024-03-08T00:29:15;101766.81;;;4.11;53.22
26697;BME280;14312;52.614;13.496;2024-03-08T00:32:01;101770.44;;;4.10;53.31
26697;BME280;14312;52.614;13.496;2024-03-08T00:34:47;101771.44;;;4.09;53.35
26697;BME280;14312;52.614;13.496;2024-03-08T00:37:33;101771.75;;;4.06;53.38
26697;BME280;14312;52.614;13.496;2024-03-08T00:40:20;101773.78;;;4.04;53.24
26697;BME280;14312;52.614;13.496;2024-03-08T00:43:06;101768.00;;;4.01;53.42
26697;BME280;14312;52.614;13.496;2024-03-08T00:45:52;101769.97;;;3.99;53.47
26697;BME280;14312;52.614;13.496;2024-03-08T00:48:38;101768.66;;;3.94;53.38
26697;BME280;14312;52.614;13.496;2024-03-08T00:51:24;101763.56;;;3.93;53.38
26697;BME280;14312;52.614;13.496;2024-03-08T00:54:10;101765.72;;;3.89;53.72
26697;BME280;14312;52.614;13.496;2024-03-08T00:56:56;101764.91;;;3.89;53.89
26697;BME280;14312;52.614;13.496;2024-03-08T00:59:42;101761.59;;;3.87;53.63
26697;BME280;14312;52.614;13.496;2024-03-08T01:02:27;101759.13;;;3.85;53.95
26697;BME280;14312;52.614;13.496;2024-03-08T01:05:14;101755.66;;;3.85;53.72
26697;BME280;14312;52.614;13.496;2024-03-08T01:08:01;101755.03;;;3.83;53.61
26697;BME280;14312;52.614;13.496;2024-03-08T01:10:49;101753.38;;;3.82;53.48
26697;BME280;14312;52.614;13.496;2024-03-08T01:13:36;101743.97;;;3.79;53.81
26697;BME280;14312;52.614;13.496;2024-03-08T01:16:22;101748.44;;;3.79;53.98
26697;BME280;14312;52.614;13.496;2024-03-08T01:19:08;101736.25;;;3.78;54.04
26697;BME280;14312;52.614;13.496;2024-03-08T01:21:54;101736.25;;;3.78;54.09
26697;BME280;14312;52.614;13.496;2024-03-08T01:24:43;101739.84;;;3.77;54.03
26697;BME280;14312;52.614;13.496;2024-03-08T01:27:29;101724.25;;;3.75;54.05
26697;BME280;14312;52.614;13.496;2024-03-08T01:30:15;101732.97;;;3.76;54.25
26697;BME280;14312;52.614;13.496;2024-03-08T01:33:03;101731.31;;;3.75;53.92
26697;BME280;14312;52.614;13.496;2024-03-08T01:35:52;101720.78;;;3.75;54.11
26697;BME280;14312;52.614;13.496;2024-03-08T01:38:38;101722.75;;;3.73;54.06
26697;BME280;14312;52.614;13.496;2024-03-08T01:41:24;101715.84;;;3.72;54.09
26697;BME280;14312;52.614;13.496;2024-03-08T01:44:10;101713.34;;;3.70;54.09
26697;BME280;14312;52.614;13.496;2024-03-08T01:46:56;101712.53;;;3.70;53.97
26697;BME280;14312;52.614;13.496;2024-03-08T01:49:42;101700.69;;;3.66;54.26
26697;BME280;14312;52.614;13.496;2024-03-08T01:52:29;101702.34;;;3.67;54.21
26697;BME280;14312;52.614;13.496;2024-03-08T01:55:17;101706.13;;;3.64;54.16
26697;BME280;14312;52.614;13.496;2024-03-08T01:58:09;101711.56;;;3.63;54.67
26697;BME280;14312;52.614;13.496;2024-03-08T02:00:56;101700.22;;;3.62;54.22
26697;BME280;14312;52.614;13.496;2024-03-08T02:03:44;101703.03;;;3.61;54.25
26697;BME280;14312;52.614;13.496;2024-03-08T02:06:30;101693.63;;;3.58;54.44
26697;BME280;14312;52.614;13.496;2024-03-08T02:09:16;101700.72;;;3.58;54.28
26697;BME280;14312;52.614;13.496;2024-03-08T02:12:03;101693.16;;;3.54;54.37
26697;BME280;14312;52.614;13.496;2024-03-08T02:14:49;101686.25;;;3.53;54.46
26697;BME280;14312;52.614;13.496;2024-03-08T02:17:35;101687.22;;;3.52;54.43
26697;BME280;14312;52.614;13.496;2024-03-08T02:20:21;101678.66;;;3.50;54.53
26697;BME280;14312;52.614;13.496;2024-03-08T02:23:07;101679.63;;;3.49;54.36
26697;BME280;14312;52.614;13.496;2024-03-08T02:25:54;101676.38;;;3.47;54.43
26697;BME280;14312;52.614;13.496;2024-03-08T02:28:40;101673.06;;;3.45;54.40
26697;BME280;14312;52.614;13.496;2024-03-08T02:31:28;101679.34;;;3.44;54.35
26697;BME280;14312;52.614;13.496;2024-03-08T02:34:14;101666.47;;;3.41;54.32
26697;BME280;14312;52.614;13.496;2024-03-08T02:37:01;101675.72;;;3.37;54.46
26697;BME280;14312;52.614;13.496;2024-03-08T02:39:47;101674.06;;;3.36;54.45
26697;BME280;14312;52.614;13.496;2024-03-08T02:42:33;101669.16;;;3.33;54.51
26697;BME280;14312;52.614;13.496;2024-03-08T02:45:18;101665.03;;;3.31;54.70
26697;BME280;14312;52.614;13.496;2024-03-08T02:48:05;101672.09;;;3.30;54.70
26697;BME280;14312;52.614;13.496;2024-03-08T02:50:54;101668.81;;;3.28;54.86
26697;BME280;14312;52.614;13.496;2024-03-08T02:53:40;101667.16;;;3.27;55.01
26697;BME280;14312;52.614;13.496;2024-03-08T02:56:26;101658.47;;;3.27;54.66
26697;BME280;14312;52.614;13.496;2024-03-08T02:59:15;101667.34;;;3.26;54.99
26697;BME280;14312;52.614;13.496;2024-03-08T03:02:03;101661.25;;;3.25;55.04
26697;BME280;14312;52.614;13.496;2024-03-08T03:04:49;101656.00;;;3.25;54.95
26697;BME280;14312;52.614;13.496;2024-03-08T03:07:35;101661.25;;;3.25;55.00
26697;BME280;14312;52.614;13.496;2024-03-08T03:10:21;101660.44;;;3.25;55.05
26697;BME280;14312;52.614;13.496;2024-03-08T03:13:07;101650.72;;;3.25;55.08
26697;BME280;14312;52.614;13.496;2024-03-08T03:15:54;101652.69;;;3.23;54.92
26697;BME280;14312;52.614;13.496;2024-03-08T03:18:40;101661.25;;;3.25;55.22
26697;BME280;14312;52.614;13.496;2024-03-08T03:21:28;101655.16;;;3.25;55.10
26697;BME280;14312;52.614;13.496;2024-03-08T03:24:15;101661.25;;;3.25;55.00
26697;BME280;14312;52.614;13.496;2024-03-08T03:27:02;101661.56;;;3.22;55.09
26697;BME280;14312;52.614;13.496;2024-03-08T03:29:56;101647.75;;;3.20;54.87
26697;BME280;14312;52.614;13.496;2024-03-08T03:32:43;101660.28;;;3.18;54.93
26697;BME280;14312;52.614;13.496;2024-03-08T03:35:33;101654.50;;;3.14;55.13
26697;BME280;14312;52.614;13.496;2024-03-08T03:38:19;101659.31;;;3.11;55.05
26697;BME280;14312;52.614;13.496;2024-03-08T03:41:06;101657.66;;;3.10;55.08
26697;BME280;14312;52.614;13.496;2024-03-08T03:43:55;101656.31;;;3.06;55.06
26697;BME280;14312;52.614;13.496;2024-03-08T03:46:42;101649.44;;;3.05;55.17
26697;BME280;14312;52.614;13.496;2024-03-08T03:49:31;101645.31;;;3.02;55.29
26697;BME280;14312;52.614;13.496;2024-03-08T03:52:17;101642.84;;;3.01;55.23
26697;BME280;14312;52.614;13.496;2024-03-08T03:55:04;101645.63;;;2.99;55.21
26697;BME280;14312;52.614;13.496;2024-03-08T03:57:50;101645.97;;;2.96;55.34
26697;BME280;14312;52.614;13.496;2024-03-08T04:00:36;101645.47;;;2.93;55.29
26697;BME280;14312;52.614;13.496;2024-03-08T04:03:22;101650.72;;;2.93;55.28
26697;BME280;14312;52.614;13.496;2024-03-08T04:06:08;101641.38;;;2.90;55.49
26697;BME280;14312;52.614;13.496;2024-03-08T04:08:54;101649.44;;;2.89;55.50
26697;BME280;14312;52.614;13.496;2024-03-08T04:11:41;101647.78;;;2.88;55.59
26697;BME280;14312;52.614;13.496;2024-03-08T04:14:26;101653.03;;;2.88;55.48
26697;BME280;14312;52.614;13.496;2024-03-08T04:17:12;101646.28;;;2.85;55.47
26697;BME280;14312;52.614;13.496;2024-03-08T04:19:59;101651.75;;;2.84;55.46
26697;BME280;14312;52.614;13.496;2024-03-08T04:22:45;101646.63;;;2.82;55.59
26697;BME280;14312;52.614;13.496;2024-03-08T04:25:34;101643.50;;;2.79;55.40
26697;BME280;14312;52.614;13.496;2024-03-08T04:28:20;101650.75;;;2.77;55.65
26697;BME280;14312;52.614;13.496;2024-03-08T04:31:06;101647.44;;;2.74;55.58
26697;BME280;14312;52.614;13.496;2024-03-08T04:33:52;101642.50;;;2.71;55.52
26697;BME280;14312;52.614;13.496;2024-03-08T04:36:38;101646.13;;;2.70;55.64
26697;BME280;14312;52.614;13.496;2024-03-08T04:39:24;101639.22;;;2.69;55.66
26697;BME280;14312;52.614;13.496;2024-03-08T04:42:14;101650.06;;;2.66;55.62
26697;BME280;14312;52.614;13.496;2024-03-08T04:45:01;101650.06;;;2.66;56.18
26697;BME280;14312;52.614;13.496;2024-03-08T04:47:47;101646.78;;;2.64;55.96
26697;BME280;14312;52.614;13.496;2024-03-08T04:50:33;101650.38;;;2.63;55.97
26697;BME280;14312;52.614;13.496;2024-03-08T04:53:19;101641.03;;;2.61;55.83
26697;BME280;14312;52.614;13.496;2024-03-08T04:56:06;101643.81;;;2.59;55.97
26697;BME280;14312;52.614;13.496;2024-03-08T04:58:52;101634.28;;;2.58;55.99
26697;BME280;14312;52.614;13.496;2024-03-08T05:01:39;101632.00;;;2.55;55.99
26697;BME280;14312;52.614;13.496;2024-03-08T05:04:25;101632.31;;;2.52;55.92
26697;BME280;14312;52.614;13.496;2024-03-08T05:07:11;101631.47;;;2.52;55.88
26697;BME280;14312;52.614;13.496;2024-03-08T05:09:57;101642.00;;;2.52;55.95
26697;BME280;14312;52.614;13.496;2024-03-08T05:12:43;101637.88;;;2.49;55.92
26697;BME280;14312;52.614;13.496;2024-03-08T05:15:29;101639.88;;;2.47;56.01
26697;BME280;14312;52.614;13.496;2024-03-08T05:18:16;101636.88;;;2.42;55.99
26697;BME280;14312;52.614;13.496;2024-03-08T05:21:02;101640.16;;;2.44;55.96
26697;BME280;14312;52.614;13.496;2024-03-08T05:23:50;101631.97;;;2.39;55.92
26697;BME280;14312;52.614;13.496;2024-03-08T05:26:36;101633.91;;;2.37;55.74
26697;BME280;14312;52.614;13.496;2024-03-08T05:29:25;101641.13;;;2.35;55.90
26697;BME280;14312;52.614;13.496;2024-03-08T05:32:11;101632.09;;;2.29;55.94
26697;BME280;14312;52.614;13.496;2024-03-08T05:34:57;101633.25;;;2.27;55.77
26697;BME280;14312;52.614;13.496;2024-03-08T05:37:43;101634.22;;;2.26;56.12
26697;BME280;14312;52.614;13.496;2024-03-08T05:40:29;101632.75;;;2.23;56.06
26697;BME280;14312;52.614;13.496;2024-03-08T05:43:18;101633.88;;;2.21;56.08
26697;BME280;14312;52.614;13.496;2024-03-08T05:46:05;101632.25;;;2.20;56.35
26697;BME280;14312;52.614;13.496;2024-03-08T05:48:51;101625.66;;;2.16;56.41
26697;BME280;14312;52.614;13.496;2024-03-08T05:51:38;101625.34;;;2.19;56.21
26697;BME280;14312;52.614;13.496;2024-03-08T05:54:25;101624.38;;;2.20;56.55
26697;BME280;14312;52.614;13.496;2024-03-08T05:57:11;101621.75;;;2.20;56.52
26697;BME280;14312;52.614;13.496;2024-03-08T05:59:57;101621.75;;;2.20;56.55
26697;BME280;14312;52.614;13.496;2024-03-08T06:02:43;101630.94;;;2.24;56.74
26697;BME280;14312;52.614;13.496;2024-03-08T06:05:29;101631.59;;;2.26;56.65
26697;BME280;14312;52.614;13.496;2024-03-08T06:08:15;101640.13;;;2.28;56.81
26697;BME280;14312;52.614;13.496;2024-03-08T06:11:01;101632.59;;;2.33;56.79
26697;BME280;14312;52.614;13.496;2024-03-08T06:13:48;101637.53;;;2.36;56.99
26697;BME280;14312;52.614;13.496;2024-03-08T06:16:35;101631.97;;;2.39;56.78
26697;BME280;14312;52.614;13.496;2024-03-08T06:19:21;101636.56;;;2.45;57.07
26697;BME280;14312;52.614;13.496;2024-03-08T06:22:07;101628.19;;;2.50;57.24
26697;BME280;14312;52.614;13.496;2024-03-08T06:24:55;101635.59;;;2.54;57.05
26697;BME280;14312;52.614;13.496;2024-03-08T06:27:41;101639.38;;;2.60;57.06
26697;BME280;14312;52.614;13.496;2024-03-08T06:30:32;101636.25;;;2.64;56.98
26697;BME280;14312;52.614;13.496;2024-03-08T06:33:18;101635.59;;;2.70;57.12
26697;BME280;14312;52.614;13.496;2024-03-08T06:36:04;101634.97;;;2.77;56.99
26697;BME280;14312;52.614;13.496;2024-03-08T06:38:50;101642.19;;;2.83;57.32
26697;BME280;14312;52.614;13.496;2024-03-08T06:41:37;101635.28;;;2.90;57.36
26697;BME280;14312;52.614;13.496;2024-03-08T06:44:23;101628.84;;;2.92;57.38
26697;BME280;14312;52.614;13.496;2024-03-08T06:47:09;101635.59;;;3.03;57.10
26697;BME280;14312;52.614;13.496;2024-03-08T06:49:55;101637.56;;;3.09;57.39
26697;BME280;14312;52.614;13.496;2024-03-08T06:52:41;101638.56;;;3.16;57.19
26697;BME280;14312;52.614;13.496;2024-03-08T06:55:32;101631.63;;;3.23;57.28
26697;BME280;14312;52.614;13.496;2024-03-08T06:58:18;101634.56;;;3.28;57.15
26697;BME280;14312;52.614;13.496;2024-03-08T07:01:04;101623.72;;;3.31;57.21
26697;BME280;14312;52.614;13.496;2024-03-08T07:03:53;101636.72;;;3.41;57.21
26697;BME280;14312;52.614;13.496;2024-03-08T07:06:39;101633.19;;;3.48;57.33
26697;BME280;14312;52.614;13.496;2024-03-08T07:09:26;101636.66;;;3.57;57.49
26697;BME280;14312;52.614;13.496;2024-03-08T07:12:12;101636.63;;;3.65;57.45
26697;BME280;14312;52.614;13.496;2024-03-08T07:14:59;101634.78;;;3.74;57.51
26697;BME280;14312;52.614;13.496;2024-03-08T07:17:45;101640.03;;;3.82;57.50
26697;BME280;14312;52.614;13.496;2024-03-08T07:20:32;101626.81;;;3.90;57.67
26697;BME280;14312;52.614;13.496;2024-03-08T07:23:18;101623.13;;;3.99;57.51
26697;BME280;14312;52.614;13.496;2024-03-08T07:26:23;101625.56;;;4.09;57.66
26697;BME280;14312;52.614;13.496;2024-03-08T07:29:09;101628.00;;;4.18;57.56
26697;BME280;14312;52.614;13.496;2024-03-08T07:31:55;101626.94;;;4.27;57.62
26697;BME280;14312;52.614;13.496;2024-03-08T07:35:00;101620.63;;;4.37;57.50
26697;BME280;14312;52.614;13.496;2024-03-08T07:37:47;101618.59;;;4.47;57.77
26697;BME280;14312;52.614;13.496;2024-03-08T07:40:39;101613.06;;;4.56;57.73
26697;BME280;14312;52.614;13.496;2024-03-08T07:43:26;101611.84;;;4.67;57.72
26697;BME280;14312;52.614;13.496;2024-03-08T07:46:13;101616.03;;;4.76;57.77
26697;BME280;14312;52.614;13.496;2024-03-08T07:48:58;101607.72;;;4.87;58.26
26697;BME280;14312;52.614;13.496;2024-03-08T07:51:45;101609.91;;;4.98;58.09
26697;BME280;14312;52.614;13.496;2024-03-08T07:54:31;101615.38;;;5.11;58.35
26697;BME280;14312;52.614;13.496;2024-03-08T07:57:17;101605.88;;;5.25;59.08
26697;BME280;14312;52.614;13.496;2024-03-08T08:00:05;101603.25;;;5.40;59.19
26697;BME280;14312;52.614;13.496;2024-03-08T08:02:54;101613.25;;;5.59;59.09
26697;BME280;14312;52.614;13.496;2024-03-08T08:05:40;101607.03;;;5.81;59.52
26697;BME280;14312;52.614;13.496;2024-03-08T08:08:26;101603.28;;;6.05;59.90
26697;BME280;14312;52.614;13.496;2024-03-08T08:11:12;101598.28;;;6.32;59.98
26697;BME280;14312;52.614;13.496;2024-03-08T08:13:58;101593.66;;;6.61;60.26
26697;BME280;14312;52.614;13.496;2024-03-08T08:16:45;101586.19;;;6.93;60.30
26697;BME280;14312;52.614;13.496;2024-03-08T08:19:31;101586.00;;;7.22;60.18
26697;BME280;14312;52.614;13.496;2024-03-08T08:22:17;101588.41;;;7.52;60.39
26697;BME280;14312;52.614;13.496;2024-03-08T08:25:04;101584.44;;;7.82;60.06
26697;BME280;14312;52.614;13.496;2024-03-08T08:27:50;101578.84;;;8.11;59.96
26697;BME280;14312;52.614;13.496;2024-03-08T08:30:36;101583.22;;;8.39;59.80
26697;BME280;14312;52.614;13.496;2024-03-08T08:33:23;101581.19;;;8.67;59.59
26697;BME280;14312;52.614;13.496;2024-03-08T08:36:11;101570.97;;;8.97;59.51
26697;BME280;14312;52.614;13.496;2024-03-08T08:38:55;101566.03;;;9.27;59.22
26697;BME280;14312;52.614;13.496;2024-03-08T08:41:43;101570.25;;;9.54;58.67
26697;BME280;14312;52.614;13.496;2024-03-08T08:44:29;101572.38;;;9.83;58.27
26697;BME280;14312;52.614;13.496;2024-03-08T08:47:17;101567.38;;;10.07;57.73
26697;BME280;14312;52.614;13.496;2024-03-08T08:50:04;101568.69;;;10.29;57.00
26697;BME280;14312;52.614;13.496;2024-03-08T08:52:51;101559.75;;;10.48;56.69
26697;BME280;14312;52.614;13.496;2024-03-08T08:55:39;101559.78;;;10.67;55.70
26697;BME280;14312;52.614;13.496;2024-03-08T08:58:25;101556.16;;;10.86;55.46
26697;BME280;14312;52.614;13.496;2024-03-08T09:01:12;101555.59;;;11.02;55.47
26697;BME280;14312;52.614;13.496;2024-03-08T09:03:58;101547.63;;;11.20;55.27
26697;BME280;14312;52.614;13.496;2024-03-08T09:06:44;101547.41;;;11.40;55.14
26697;BME280;14312;52.614;13.496;2024-03-08T09:09:30;101543.47;;;11.61;55.02
26697;BME280;14312;52.614;13.496;2024-03-08T09:12:16;101543.00;;;11.82;54.44
26697;BME280;14312;52.614;13.496;2024-03-08T09:15:03;101538.44;;;12.01;53.55
26697;BME280;14312;52.614;13.496;2024-03-08T09:17:48;101532.44;;;12.17;53.27
26697;BME280;14312;52.614;13.496;2024-03-08T09:20:34;101533.88;;;12.31;52.75
26697;BME280;14312;52.614;13.496;2024-03-08T09:23:21;101527.50;;;12.44;52.51
26697;BME280;14312;52.614;13.496;2024-03-08T09:26:07;101524.66;;;12.57;52.26
26697;BME280;14312;52.614;13.496;2024-03-08T09:28:54;101524.97;;;12.72;51.71
26697;BME280;14312;52.614;13.496;2024-03-08T09:31:40;101523.16;;;12.84;51.52
26697;BME280;14312;52.614;13.496;2024-03-08T09:34:26;101522.53;;;12.94;51.48
26697;BME280;14312;52.614;13.496;2024-03-08T09:37:12;101521.84;;;13.10;51.07
26697;BME280;14312;52.614;13.496;2024-03-08T09:39:58;101516.03;;;13.25;51.05
26697;BME280;14312;52.614;13.496;2024-03-08T09:42:48;101507.28;;;13.41;50.22
26697;BME280;14312;52.614;13.496;2024-03-08T09:45:36;101508.97;;;13.59;50.33
26697;BME280;14312;52.614;13.496;2024-03-08T09:48:22;101507.38;;;13.75;50.04
26697;BME280;14312;52.614;13.496;2024-03-08T09:51:09;101499.63;;;13.90;49.65
26697;BME280;14312;52.614;13.496;2024-03-08T09:53:59;101503.06;;;14.02;48.92
26697;BME280;14312;52.614;13.496;2024-03-08T09:56:46;101497.56;;;14.08;48.50
26697;BME280;14312;52.614;13.496;2024-03-08T09:59:33;101494.63;;;14.10;48.28
26697;BME280;14312;52.614;13.496;2024-03-08T10:02:21;101488.81;;;14.13;48.30
26697;BME280;14312;52.614;13.496;2024-03-08T10:05:08;101494.25;;;14.18;48.35
26697;BME280;14312;52.614;13.496;2024-03-08T10:07:56;101480.69;;;14.25;48.29
26697;BME280;14312;52.614;13.496;2024-03-08T10:10:42;101472.72;;;14.30;47.55
26697;BME280;14312;52.614;13.496;2024-03-08T10:13:28;101470.47;;;14.38;47.65
26697;BME280;14312;52.614;13.496;2024-03-08T10:16:14;101475.84;;;14.38;47.00
26697;BME280;14312;52.614;13.496;2024-03-08T10:19:02;101468.97;;;14.31;46.81
26697;BME280;14312;52.614;13.496;2024-03-08T10:21:49;101468.00;;;14.20;46.52
26697;BME280;14312;52.614;13.496;2024-03-08T10:24:38;101474.16;;;14.04;46.03
26697;BME280;14312;52.614;13.496;2024-03-08T10:27:24;101481.34;;;13.87;46.07
26697;BME280;14312;52.614;13.496;2024-03-08T10:30:16;101471.66;;;13.69;46.31
26697;BME280;14312;52.614;13.496;2024-03-08T10:33:05;101464.16;;;13.54;46.65
26697;BME280;14312;52.614;13.496;2024-03-08T10:35:53;101459.91;;;13.42;46.45
26697;BME280;14312;52.614;13.496;2024-03-08T10:38:40;101455.63;;;13.29;46.62
26697;BME280;14312;52.614;13.496;2024-03-08T10:41:31;101455.88;;;13.16;46.14
26697;BME280;14312;52.614;13.496;2024-03-08T10:47:19;101444.63;;;12.90;46.05
26697;BME280;14312;52.614;13.496;2024-03-08T10:50:20;101443.84;;;12.78;45.39
26697;BME280;14312;52.614;13.496;2024-03-08T10:53:08;101443.59;;;12.68;46.56
26697;BME280;14312;52.614;13.496;2024-03-08T10:55:57;101441.75;;;12.57;46.82
26697;BME280;14312;52.614;13.496;2024-03-08T10:58:44;101431.97;;;12.51;46.25
26697;BME280;14312;52.614;13.496;2024-03-08T11:01:30;101421.41;;;12.44;46.81
26697;BME280;14312;52.614;13.496;2024-03-08T11:04:16;101431.75;;;12.41;46.73
26697;BME280;14312;52.614;13.496;2024-03-08T11:07:05;101425.59;;;12.40;47.01
26697;BME280;14312;52.614;13.496;2024-03-08T11:09:52;101415.72;;;12.41;46.66
26697;BME280;14312;52.614;13.496;2024-03-08T11:12:38;101405.63;;;12.43;46.92
26697;BME280;14312;52.614;13.496;2024-03-08T11:15:24;101407.81;;;12.46;47.11
26697;BME280;14312;52.614;13.496;2024-03-08T11:18:10;101401.53;;;12.52;47.12
26697;BME280;14312;52.614;13.496;2024-03-08T11:20:58;101397.22;;;12.63;47.10
26697;BME280;14312;52.614;13.496;2024-03-08T11:23:59;101392.63;;;12.86;46.67
26697;BME280;14312;52.614;13.496;2024-03-08T11:26:45;101392.16;;;13.13;46.75
26697;BME280;14312;52.614;13.496;2024-03-08T11:29:33;101388.97;;;13.44;46.44
26697;BME280;14312;52.614;13.496;2024-03-08T11:32:27;101384.81;;;13.82;45.80
26697;BME280;14312;52.614;13.496;2024-03-08T11:35:20;101375.25;;;14.19;45.48
26697;BME280;14312;52.614;13.496;2024-03-08T11:38:08;101373.09;;;14.55;45.57
26697;BME280;14312;52.614;13.496;2024-03-08T11:40:57;101363.06;;;14.88;44.73
26697;BME280;14312;52.614;13.496;2024-03-08T11:43:43;101369.59;;;15.19;44.33
26697;BME280;14312;52.614;13.496;2024-03-08T11:46:30;101367.16;;;15.45;43.79
26697;BME280;14312;52.614;13.496;2024-03-08T11:49:16;101352.38;;;15.69;43.58
26697;BME280;14312;52.614;13.496;2024-03-08T11:52:02;101352.53;;;15.89;43.46
26697;BME280;14312;52.614;13.496;2024-03-08T11:54:53;101349.47;;;16.13;41.89
26697;BME280;14312;52.614;13.496;2024-03-08T11:57:45;101350.13;;;16.35;42.60
26697;BME280;14312;52.614;13.496;2024-03-08T12:00:31;101342.44;;;16.54;41.94
26697;BME280;14312;52.614;13.496;2024-03-08T12:03:23;101348.47;;;16.71;42.13
26697;BME280;14312;52.614;13.496;2024-03-08T12:06:13;101346.66;;;16.92;41.29
26697;BME280;14312;52.614;13.496;2024-03-08T12:09:01;101341.88;;;17.09;41.05
26697;BME280;14312;52.614;13.496;2024-03-08T12:11:48;101335.97;;;17.27;40.90
26697;BME280;14312;52.614;13.496;2024-03-08T12:14:36;101336.53;;;17.44;41.06
26697;BME280;14312;52.614;13.496;2024-03-08T12:17:23;101324.19;;;17.69;41.02
26697;BME280;14312;52.614;13.496;2024-03-08T12:20:28;101322.53;;;17.93;39.51
26697;BME280;14312;52.614;13.496;2024-03-08T12:23:15;101317.91;;;18.14;41.31
26697;BME280;14312;52.614;13.496;2024-03-08T12:26:16;101310.00;;;18.43;39.89
26697;BME280;14312;52.614;13.496;2024-03-08T12:29:19;101308.84;;;18.69;39.05
26697;BME280;14312;52.614;13.496;2024-03-08T12:32:08;101305.53;;;18.87;40.04
26697;BME280;14312;52.614;13.496;2024-03-08T12:34:57;101305.19;;;19.04;39.06
26697;BME280;14312;52.614;13.496;2024-03-08T12:37:43;101287.53;;;19.16;39.16
26697;BME280;14312;52.614;13.496;2024-03-08T12:40:31;101302.03;;;19.31;38.65
26697;BME280;14312;52.614;13.496;2024-03-08T12:43:17;101292.19;;;19.40;38.90
26697;BME280;14312;52.614;13.496;2024-03-08T12:46:04;101287.84;;;19.49;38.18
26697;BME280;14312;52.614;13.496;2024-03-08T12:48:51;101281.81;;;19.57;38.16
26697;BME280;14312;52.614;13.496;2024-03-08T12:51:39;101284.47;;;19.62;37.70
26697;BME280;14312;52.614;13.496;2024-03-08T12:54:25;101279.03;;;19.67;37.72
26697;BME280;14312;52.614;13.496;2024-03-08T12:57:11;101276.22;;;19.77;37.39
26697;BME280;14312;52.614;13.496;2024-03-08T12:59:57;101274.53;;;19.86;37.19
26697;BME280;14312;52.614;13.496;2024-03-08T13:02:43;101266.34;;;19.91;37.28
26697;BME280;14312;52.614;13.496;2024-03-08T13:05:29;101259.28;;;19.96;36.75
26697;BME280;14312;52.614;13.496;2024-03-08T13:08:15;101246.78;;;20.00;36.61
26697;BME280;14312;52.614;13.496;2024-03-08T13:11:03;101243.44;;;20.08;36.89
26697;BME280;14312;52.614;13.496;2024-03-08T13:13:50;101247.13;;;20.17;36.76
26697;BME280;14312;52.614;13.496;2024-03-08T13:16:36;101239.97;;;20.26;36.68
26697;BME280;14312;52.614;13.496;2024-03-08T13:19:22;101242.06;;;20.34;36.64
26697;BME280;14312;52.614;13.496;2024-03-08T13:22:08;101241.06;;;20.49;36.06
26697;BME280;14312;52.614;13.496;2024-03-08T13:25:03;101231.72;;;20.60;35.73
26697;BME280;14312;52.614;13.496;2024-03-08T13:27:50;101232.47;;;20.65;35.32
26697;BME280;14312;52.614;13.496;2024-03-08T13:30:37;101227.47;;;20.73;35.49
26697;BME280;14312;52.614;13.496;2024-03-08T13:33:22;101223.06;;;20.77;35.53
26697;BME280;14312;52.614;13.496;2024-03-08T13:36:09;101228.94;;;20.84;35.43
26697;BME280;14312;52.614;13.496;2024-03-08T13:39:06;101217.50;;;20.87;35.25
26697;BME280;14312;52.614;13.496;2024-03-08T13:42:00;101219.13;;;20.88;34.87
26697;BME280;14312;52.614;13.496;2024-03-08T13:44:46;101218.22;;;20.92;34.60
26697;BME280;14312;52.614;13.496;2024-03-08T13:47:32;101222.75;;;20.97;35.06
26697;BME280;14312;52.614;13.496;2024-03-08T13:50:19;101209.44;;;21.00;34.79
26697;BME280;14312;52.614;13.496;2024-03-08T13:53:09;101203.72;;;21.02;34.15
26697;BME280;14312;52.614;13.496;2024-03-08T13:55:56;101207.31;;;20.97;34.38
26697;BME280;14312;52.614;13.496;2024-03-08T13:58:42;101201.78;;;20.89;34.28
26697;BME280;14312;52.614;13.496;2024-03-08T14:01:29;101187.19;;;20.85;34.49
26697;BME280;14312;52.614;13.496;2024-03-08T14:04:16;101191.81;;;20.84;34.32
26697;BME280;14312;52.614;13.496;2024-03-08T14:07:04;101186.19;;;20.81;34.48
26697;BME280;14312;52.614;13.496;2024-03-08T14:09:53;101184.56;;;20.80;34.49
26697;BME280;14312;52.614;13.496;2024-03-08T14:12:39;101181.25;;;20.83;34.38
26697;BME280;14312;52.614;13.496;2024-03-08T14:15:26;101177.16;;;20.85;34.50
26697;BME280;14312;52.614;13.496;2024-03-08T14:18:12;101177.59;;;20.92;34.50
26697;BME280;14312;52.614;13.496;2024-03-08T14:20:58;101165.38;;;20.95;34.20
26697;BME280;14312;52.614;13.496;2024-03-08T14:23:45;101172.41;;;20.96;34.15
26697;BME280;14312;52.614;13.496;2024-03-08T14:26:31;101159.94;;;20.95;34.34
26697;BME280;14312;52.614;13.496;2024-03-08T14:29:17;101161.56;;;20.96;33.85
26697;BME280;14312;52.614;13.496;2024-03-08T14:32:05;101148.50;;;20.98;33.91